Time;durP1;ratioP1;P1;durP2;ratioP2;P2;SDS_P1;SDS_P2;PMS_P1;PMS_P2;Temp;Humidity;BMP_temperature;BMP_pressure;BME280_temperature;BME280_humidity;BME280_pressure;Samples;Min_cycle;Max_cycle;Signal;HPM_P1;HPM_P2
2023/08/18 00:02:15;;;;;;;3.85;2.15;;;;;;;16.98;64.52;100447.44;5004540;28;20043;-63
2023/08/18 00:04:42;;;;;;;4.55;1.95;;;;;;;16.98;64.88;100449.22;5003188;28;20132;-63
2023/08/18 00:07:10;;;;;;;3.22;2.22;;;;;;;16.99;65.04;100443.91;5006171;28;20509;-60
2023/08/18 00:09:37;;;;;;;3.28;1.95;;;;;;;16.95;65.12;100440.53;5000596;28;20141;-60
2023/08/18 00:12:05;;;;;;;4.35;2.40;;;;;;;16.92;65.71;100440.59;5008669;28;20046;-61
2023/08/18 00:14:32;;;;;;;6.15;2.03;;;;;;;16.89;65.03;100430.19;5006280;28;20052;-61
2023/08/18 00:16:59;;;;;;;2.90;2.13;;;;;;;16.87;66.12;100432.00;5007700;28;20049;-60
2023/08/18 00:19:26;;;;;;;3.00;2.22;;;;;;;16.89;66.06;100432.81;5008358;28;20048;-61
2023/08/18 00:21:52;;;;;;;6.47;2.38;;;;;;;16.87;65.44;100434.63;5003711;28;20053;-60
2023/08/18 00:24:20;;;;;;;4.88;2.35;;;;;;;16.90;66.05;100447.63;5002053;28;20046;-59
2023/08/18 00:26:49;;;;;;;3.33;2.10;;;;;;;16.88;65.84;100438.94;5001762;28;20046;-63
2023/08/18 00:29:18;;;;;;;4.22;2.90;;;;;;;16.91;65.41;100446.72;5006844;28;20133;-63
2023/08/18 00:31:47;;;;;;;3.88;2.13;;;;;;;16.90;65.68;100447.63;5001819;28;20065;-63
2023/08/18 00:34:15;;;;;;;3.33;2.33;;;;;;;16.88;66.66;100436.31;5009252;28;20921;-62
2023/08/18 00:36:44;;;;;;;4.43;2.17;;;;;;;16.90;65.87;100437.16;5007710;28;20048;-61
2023/08/18 00:39:12;;;;;;;3.75;2.30;;;;;;;16.91;66.01;100427.53;5000007;28;20487;-60
2023/08/18 00:41:40;;;;;;;2.90;2.60;;;;;;;16.91;66.26;100424.91;5000498;28;20041;-62
2023/08/18 00:44:09;;;;;;;2.90;2.42;;;;;;;16.88;66.61;100428.47;5007442;28;20050;-62
2023/08/18 00:46:38;;;;;;;6.80;2.45;;;;;;;16.87;66.33;100426.75;5003409;28;20133;-63
2023/08/18 00:49:09;;;;;;;4.40;2.53;;;;;;;16.87;66.43;100425.88;5006884;28;20136;-63
2023/08/18 00:51:40;;;;;;;4.80;2.45;;;;;;;16.84;66.69;100421.59;5002360;28;20049;-62
2023/08/18 00:54:12;;;;;;;3.03;2.65;;;;;;;16.85;66.65;100427.69;4997491;28;20516;-61
2023/08/18 00:56:41;;;;;;;3.03;2.50;;;;;;;16.84;66.42;100418.97;4997555;28;20043;-62
2023/08/18 00:59:10;;;;;;;5.22;2.65;;;;;;;16.85;67.28;100423.31;5007001;28;20438;-62
2023/08/18 01:01:39;;;;;;;2.85;2.42;;;;;;;16.85;67.18;100428.53;4998470;28;20129;-64
2023/08/18 01:04:07;;;;;;;5.03;2.78;;;;;;;16.86;66.78;100425.06;5007419;28;20065;-61
2023/08/18 01:06:34;;;;;;;4.45;2.70;;;;;;;16.88;66.94;100423.25;5000438;28;20078;-63
2023/08/18 01:09:01;;;;;;;3.70;2.58;;;;;;;16.84;67.68;100418.97;5004606;28;20049;-63
2023/08/18 01:11:55;;;;;;;5.10;2.35;;;;;;;16.78;68.03;100406.03;5006185;28;20050;-63
2023/08/18 01:17:06;;;;;;;4.80;1.58;;;;;;;16.83;67.55;100409.41;5061157;28;20741;-64
2023/08/18 01:19:34;;;;;;;5.70;1.25;;;;;;;16.82;67.83;100403.31;5014799;28;20065;-64
2023/08/18 01:22:01;;;;;;;2.92;1.00;;;;;;;16.83;67.74;100407.66;5014589;28;20137;-63
2023/08/18 01:24:28;;;;;;;5.90;1.40;;;;;;;16.84;67.47;100411.13;5027030;28;20045;-63
2023/08/18 01:26:55;;;;;;;4.47;1.20;;;;;;;16.81;67.57;100405.97;5041346;28;20045;-63
2023/08/18 01:29:22;;;;;;;6.05;1.65;;;;;;;16.85;67.13;100402.38;5043059;28;20057;-60
2023/08/18 01:31:55;;;;;;;6.75;1.60;;;;;;;16.85;67.55;100389.31;5041848;28;20576;-62
2023/08/18 01:34:25;;;;;;;5.38;1.33;;;;;;;16.87;67.90;100387.53;5023313;28;20571;-63
2023/08/18 01:36:56;;;;;;;2.28;1.63;;;;;;;16.85;67.78;100386.69;5032517;28;20517;-64
2023/08/18 01:39:24;;;;;;;2.72;1.52;;;;;;;16.84;68.05;100382.34;5031361;28;20426;-61
2023/08/18 01:41:52;;;;;;;4.32;0.98;;;;;;;16.82;68.39;100381.56;5022805;28;20484;-63
2023/08/18 01:44:19;;;;;;;4.22;1.00;;;;;;;16.83;68.26;100378.03;5041106;28;20048;-62
2023/08/18 01:46:46;;;;;;;4.97;1.50;;;;;;;16.83;67.83;100384.09;5042973;28;20061;-62
2023/08/18 01:49:14;;;;;;;4.45;1.50;;;;;;;16.85;68.29;100384.06;5022196;28;20065;-62
2023/08/18 01:51:41;;;;;;;4.22;1.45;;;;;;;16.86;68.19;100377.09;5032806;28;20506;-65
2023/08/18 01:54:08;;;;;;;5.38;1.40;;;;;;;16.86;68.00;100375.34;5043062;28;20045;-63
2023/08/18 01:56:34;;;;;;;4.97;1.60;;;;;;;16.86;67.73;100372.72;5039340;28;20057;-63
2023/08/18 01:59:03;;;;;;;3.13;1.50;;;;;;;16.88;68.23;100370.91;5017611;28;20124;-64
2023/08/18 02:01:30;;;;;;;3.65;1.90;;;;;;;16.87;68.28;100361.38;5041651;28;20042;-64
2023/08/18 02:03:57;;;;;;;4.45;1.63;;;;;;;16.88;68.20;100357.84;5039294;28;20072;-60
2023/08/18 02:06:23;;;;;;;4.00;1.30;;;;;;;16.87;68.19;100366.59;5047790;28;20490;-63
2023/08/18 02:08:50;;;;;;;5.10;1.55;;;;;;;16.88;68.09;100365.69;5044866;28;20081;-61
2023/08/18 02:11:25;;;;;;;4.20;1.13;;;;;;;16.89;68.77;100372.63;5055786;28;20482;-65
2023/08/18 02:13:51;;;;;;;4.93;1.35;;;;;;;16.89;68.66;100370.00;5037618;28;20059;-63
2023/08/18 02:16:18;;;;;;;6.68;1.33;;;;;;;16.90;68.10;100363.91;5038438;28;20049;-61
2023/08/18 02:18:45;;;;;;;4.90;1.63;;;;;;;16.92;68.53;100359.47;5036484;28;20103;-64
2023/08/18 02:21:11;;;;;;;4.13;1.50;;;;;;;16.93;68.84;100353.34;5050795;28;20235;-62
2023/08/18 02:23:38;;;;;;;3.17;1.33;;;;;;;16.94;68.51;100344.63;5056858;28;20067;-62
2023/08/18 02:26:05;;;;;;;8.05;1.50;;;;;;;16.94;68.76;100328.06;5040327;28;20080;-61
2023/08/18 02:28:33;;;;;;;7.30;2.35;;;;;;;16.94;67.99;100336.78;5018657;28;20538;-65
2023/08/18 02:31:02;;;;;;;3.67;1.73;;;;;;;16.92;68.45;100330.72;5025651;28;20526;-62
2023/08/18 02:33:29;;;;;;;5.70;1.35;;;;;;;16.92;68.56;100333.31;5039672;28;20056;-65
2023/08/18 02:35:56;;;;;;;3.53;1.13;;;;;;;16.91;68.21;100329.00;5037635;28;20052;-62
2023/08/18 02:38:23;;;;;;;4.80;1.30;;;;;;;16.91;68.43;100323.75;5026065;28;20041;-62
2023/08/18 02:40:49;;;;;;;6.38;1.23;;;;;;;16.92;68.98;100324.63;5048888;28;20052;-62
2023/08/18 02:43:16;;;;;;;2.90;1.30;;;;;;;16.90;68.76;100314.22;5029147;28;20069;-62
2023/08/18 02:45:42;;;;;;;5.40;1.38;;;;;;;16.91;69.06;100318.53;5020047;28;20037;-64
2023/08/18 02:48:12;;;;;;;7.03;1.90;;;;;;;16.92;69.20;100316.78;5022289;28;20096;-62
2023/08/18 02:50:40;;;;;;;5.07;1.58;;;;;;;16.91;69.54;100307.19;5025553;28;20505;-63
2023/08/18 02:53:07;;;;;;;4.10;1.77;;;;;;;16.90;69.07;100300.25;5028376;28;20049;-63
2023/08/18 02:55:34;;;;;;;6.10;1.75;;;;;;;16.91;68.80;100302.84;5025495;28;20103;-62
2023/08/18 02:58:02;;;;;;;4.22;1.50;;;;;;;16.89;68.89;100294.16;5028437;28;20502;-61
2023/08/18 03:00:29;;;;;;;4.18;1.80;;;;;;;16.88;69.50;100287.22;5029839;28;20046;-63
2023/08/18 03:02:55;;;;;;;3.33;1.35;;;;;;;16.88;69.28;100287.22;5029166;28;20053;-62
2023/08/18 03:05:22;;;;;;;8.40;1.80;;;;;;;16.85;69.92;100289.06;5026583;28;20042;-62
2023/08/18 03:07:49;;;;;;;7.07;1.77;;;;;;;16.85;69.88;100287.28;5031276;28;20506;-61
2023/08/18 03:10:15;;;;;;;7.85;2.15;;;;;;;16.88;69.19;100281.97;5029473;28;20052;-63
2023/08/18 03:12:42;;;;;;;7.55;1.60;;;;;;;16.89;69.85;100288.91;5028241;28;20041;-60
2023/08/18 03:15:09;;;;;;;3.95;1.83;;;;;;;16.87;69.75;100280.28;5027207;28;20053;-64
2023/08/18 03:17:35;;;;;;;2.88;1.48;;;;;;;16.82;69.57;100290.84;5031793;28;20052;-60
2023/08/18 03:20:04;;;;;;;5.55;1.67;;;;;;;16.85;69.66;100287.28;5025495;28;20053;-65
2023/08/18 03:22:32;;;;;;;6.50;2.58;;;;;;;16.86;70.13;100290.75;5031388;28;20124;-60
2023/08/18 03:25:00;;;;;;;5.90;1.70;;;;;;;16.84;70.08;100288.19;5027604;28;20391;-61
2023/08/18 03:27:27;;;;;;;7.70;1.60;;;;;;;16.81;70.34;100275.19;5031647;28;20046;-63
2023/08/18 03:29:55;;;;;;;6.88;1.95;;;;;;;16.85;70.05;100271.59;5029575;28;20046;-64
2023/08/18 03:32:23;;;;;;;3.50;1.58;;;;;;;16.84;69.54;100267.25;5032177;28;20419;-63
2023/08/18 03:34:51;;;;;;;4.28;1.60;;;;;;;16.81;70.20;100269.94;5030944;28;20044;-64
2023/08/18 03:37:19;;;;;;;6.50;1.80;;;;;;;16.83;70.27;100263.78;5026641;28;20076;-60
2023/08/18 03:39:46;;;;;;;4.97;1.40;;;;;;;16.84;70.50;100264.66;5032163;28;20061;-61
2023/08/18 03:42:12;;;;;;;6.47;2.38;;;;;;;16.82;70.57;100266.47;5024194;28;20045;-61
2023/08/18 03:44:39;;;;;;;9.95;2.28;;;;;;;16.84;69.78;100264.66;5025252;28;20421;-61
2023/08/18 03:47:06;;;;;;;4.45;1.92;;;;;;;16.79;70.50;100256.06;5033569;28;20051;-61
2023/08/18 03:49:32;;;;;;;7.82;2.65;;;;;;;16.82;71.02;100256.00;5029391;28;20106;-62
2023/08/18 03:51:59;;;;;;;6.60;1.67;;;;;;;16.80;70.29;100258.66;5029683;28;20088;-62
2023/08/18 03:54:25;;;;;;;5.82;2.28;;;;;;;16.83;70.42;100250.69;5036454;28;20094;-63
2023/08/18 03:56:52;;;;;;;9.52;2.42;;;;;;;16.81;70.42;100246.41;5028023;28;20422;-63
2023/08/18 03:59:19;;;;;;;7.97;2.15;;;;;;;16.81;70.68;100246.41;5022885;28;20041;-62
2023/08/18 04:01:46;;;;;;;8.40;2.35;;;;;;;16.81;70.92;100249.03;5028420;28;20049;-63
2023/08/18 04:04:13;;;;;;;10.80;2.20;;;;;;;16.84;70.30;100238.50;5023506;28;20052;-60
2023/08/18 04:06:39;;;;;;;6.68;2.00;;;;;;;16.85;70.43;100240.19;5020101;28;20539;-63
2023/08/18 04:09:09;;;;;;;5.55;2.05;;;;;;;16.84;71.17;100233.25;5037102;28;20514;-62
2023/08/18 04:11:36;;;;;;;5.30;1.98;;;;;;;16.84;70.65;100230.63;5031605;28;20055;-60
2023/08/18 04:14:03;;;;;;;5.05;2.00;;;;;;;16.85;71.23;100229.72;5033684;28;20099;-64
2023/08/18 04:16:31;;;;;;;9.73;1.98;;;;;;;16.85;71.05;100237.59;5024692;28;20037;-62
2023/08/18 04:18:58;;;;;;;4.70;1.92;;;;;;;16.84;70.84;100238.50;5032448;28;20137;-62
2023/08/18 04:21:25;;;;;;;6.65;2.17;;;;;;;16.82;71.34;100232.44;5022850;28;20042;-61
2023/08/18 04:23:52;;;;;;;7.72;2.35;;;;;;;16.83;72.12;100242.00;5022980;28;20073;-61
2023/08/18 04:26:19;;;;;;;8.18;2.40;;;;;;;16.84;71.43;100241.09;5033425;28;20050;-63
2023/08/18 04:28:46;;;;;;;7.03;2.50;;;;;;;16.87;70.79;100238.41;5027644;28;20056;-62
2023/08/18 04:31:13;;;;;;;5.93;2.42;;;;;;;16.87;71.05;100241.03;5017232;28;20057;-60
2023/08/18 04:33:39;;;;;;;7.78;2.53;;;;;;;16.86;72.22;100236.72;5023497;28;20115;-63
2023/08/18 04:36:06;;;;;;;10.52;2.75;;;;;;;16.89;71.36;100236.59;5029372;28;20505;-63
2023/08/18 04:38:33;;;;;;;8.82;2.92;;;;;;;16.90;71.74;100233.09;5019802;28;20052;-62
2023/08/18 04:41:02;;;;;;;6.38;3.45;;;;;;;16.89;71.64;100226.13;5026491;28;20065;-61
2023/08/18 04:43:30;;;;;;;10.70;2.67;;;;;;;16.91;71.45;100213.88;5029983;28;20052;-61
2023/08/18 04:45:57;;;;;;;7.28;3.22;;;;;;;16.90;71.98;100206.94;5031796;28;20364;-63
2023/08/18 04:48:24;;;;;;;7.68;2.55;;;;;;;16.88;72.57;100203.50;5028037;28;20053;-63
2023/08/18 04:50:51;;;;;;;8.20;3.15;;;;;;;16.87;72.17;100196.56;5026219;28;20056;-61
2023/08/18 04:53:17;;;;;;;9.50;3.22;;;;;;;16.90;72.08;100185.16;5026431;28;20137;-65
2023/08/18 04:55:44;;;;;;;11.35;3.55;;;;;;;16.91;72.15;100177.25;5025178;28;20406;-59
2023/08/18 04:58:12;;;;;;;8.00;3.08;;;;;;;16.90;72.96;100174.69;5027421;28;20052;-60
2023/08/18 05:00:41;;;;;;;8.40;3.35;;;;;;;16.89;72.91;100152.88;5027435;28;20417;-64
2023/08/18 05:03:08;;;;;;;8.98;3.45;;;;;;;16.90;72.56;100165.09;5022249;28;20473;-62
2023/08/18 05:05:39;;;;;;;9.55;3.40;;;;;;;16.87;73.56;100162.56;5032262;28;20045;-60
2023/08/18 05:08:06;;;;;;;6.85;3.55;;;;;;;16.89;73.47;100168.59;5029037;28;20053;-59
2023/08/18 05:10:33;;;;;;;6.28;3.28;;;;;;;16.87;73.67;100170.41;5018905;28;20053;-64
2023/08/18 05:12:59;;;;;;;6.57;2.80;;;;;;;16.87;73.44;100159.94;5024457;28;20506;-65
2023/08/18 05:15:28;;;;;;;9.35;3.38;;;;;;;16.88;73.70;100156.41;5022202;28;20038;-65
2023/08/18 05:17:55;;;;;;;8.18;2.75;;;;;;;16.90;73.10;100144.16;5022145;28;20045;-64
2023/08/18 05:20:22;;;;;;;10.50;3.20;;;;;;;16.92;73.31;100141.50;5025688;28;20337;-65
2023/08/18 05:22:48;;;;;;;5.38;2.55;;;;;;;16.92;73.47;100134.50;5038215;28;20045;-62
2023/08/18 05:25:15;;;;;;;9.32;3.22;;;;;;;16.92;74.06;100125.81;5026018;28;20040;-62
2023/08/18 05:27:42;;;;;;;5.90;2.63;;;;;;;16.95;74.18;100123.97;5019049;28;20129;-60
2023/08/18 05:30:09;;;;;;;5.28;2.33;;;;;;;16.98;73.29;100128.25;5021514;28;20099;-64
2023/08/18 05:32:36;;;;;;;4.30;2.53;;;;;;;16.98;73.77;100124.78;5029717;28;20045;-62
2023/08/18 05:35:04;;;;;;;5.75;3.03;;;;;;;16.99;73.50;100116.03;5022358;28;20136;-64
2023/08/18 05:37:31;;;;;;;10.48;3.08;;;;;;;17.02;73.87;100131.66;5028238;28;20457;-64
2023/08/18 05:39:57;;;;;;;9.57;3.15;;;;;;;17.05;73.92;100139.38;5029921;28;20520;-63
2023/08/18 05:42:24;;;;;;;7.47;3.00;;;;;;;17.03;73.87;100154.28;5026527;28;20494;-61
2023/08/18 05:44:50;;;;;;;10.88;3.20;;;;;;;17.05;74.23;100155.09;5028448;28;20165;-62
2023/08/18 05:47:17;;;;;;;7.78;2.65;;;;;;;17.04;74.86;100150.75;5025545;28;20053;-63
2023/08/18 05:49:43;;;;;;;10.05;3.20;;;;;;;17.07;74.56;100141.13;5024826;28;20061;-61
2023/08/18 05:52:10;;;;;;;7.53;3.05;;;;;;;17.12;73.86;100132.28;5025528;28;20057;-62
2023/08/18 05:54:37;;;;;;;8.07;3.10;;;;;;;17.01;75.57;100129.91;5031158;28;20041;-64
2023/08/18 05:57:03;;;;;;;5.35;2.33;;;;;;;17.08;74.97;100121.00;5033622;28;20057;-64
2023/08/18 05:59:32;;;;;;;7.47;3.53;;;;;;;17.14;74.71;100131.31;5022835;28;20426;-62
2023/08/18 06:01:58;;;;;;;7.57;2.88;;;;;;;17.19;73.85;100139.88;5021306;28;20644;-62
2023/08/18 06:04:25;;;;;;;10.18;3.42;;;;;;;17.20;74.57;100157.28;5031800;28;20040;-62
2023/08/18 06:06:52;;;;;;;10.07;3.70;;;;;;;17.20;74.63;100144.22;5028403;28;20045;-62
2023/08/18 06:09:19;;;;;;;8.18;3.72;;;;;;;17.24;74.74;100142.38;5026865;28;20048;-63
2023/08/18 06:11:46;;;;;;;6.15;3.22;;;;;;;17.27;74.44;100146.66;5030428;28;20057;-63
2023/08/18 06:14:12;;;;;;;12.13;4.03;;;;;;;17.29;75.33;100143.09;5027462;28;20050;-61
2023/08/18 06:16:39;;;;;;;9.55;3.50;;;;;;;17.33;74.44;100141.25;5026262;28;20077;-62
2023/08/18 06:19:05;;;;;;;12.63;3.20;;;;;;;17.33;75.08;100141.25;5041312;28;20049;-63
2023/08/18 06:21:32;;;;;;;8.50;3.95;;;;;;;17.35;75.04;100136.81;5037213;28;20049;-62
2023/08/18 06:23:59;;;;;;;8.65;3.38;;;;;;;17.35;74.83;100123.72;5030911;28;20045;-62
2023/08/18 06:26:26;;;;;;;6.93;3.30;;;;;;;17.33;74.93;100115.09;5027633;28;20532;-65
2023/08/18 06:28:52;;;;;;;10.57;4.00;;;;;;;17.35;74.75;100102.78;5034426;28;20055;-64
2023/08/18 06:31:19;;;;;;;16.60;3.78;;;;;;;17.38;75.47;100102.69;5029753;28;20375;-63
2023/08/18 06:33:46;;;;;;;7.57;3.35;;;;;;;17.32;75.93;100108.09;5027559;28;20042;-63
2023/08/18 06:36:12;;;;;;;12.32;4.13;;;;;;;17.39;74.94;100109.63;5042566;28;20049;-63
2023/08/18 06:38:39;;;;;;;11.30;4.13;;;;;;;17.44;75.47;100112.13;5028924;28;20083;-61
2023/08/18 06:41:06;;;;;;;11.63;3.53;;;;;;;17.49;74.59;100119.84;5032683;28;20049;-63
2023/08/18 06:43:33;;;;;;;9.02;3.95;;;;;;;17.49;75.24;100119.84;5033131;28;20049;-64
2023/08/18 06:45:59;;;;;;;12.05;4.68;;;;;;;17.50;75.20;100126.78;5027495;28;20056;-61
2023/08/18 06:48:26;;;;;;;11.02;4.65;;;;;;;17.50;75.21;100132.91;5021250;28;20048;-64
2023/08/18 06:50:53;;;;;;;9.50;4.10;;;;;;;17.51;75.00;100138.97;5021329;28;20537;-63
2023/08/18 06:53:20;;;;;;;12.50;4.30;;;;;;;17.54;74.88;100150.22;5028429;28;20053;-61
2023/08/18 06:55:47;;;;;;;12.82;4.95;;;;;;;17.59;75.16;100152.69;5027913;28;20068;-64
2023/08/18 06:58:29;;;;;;;13.20;4.72;;;;;;;17.58;74.88;100166.69;5021457;28;20056;-64
2023/08/18 07:00:56;;;;;;;12.50;5.10;;;;;;;17.62;75.29;100165.69;5029190;28;20053;-62
2023/08/18 07:03:22;;;;;;;13.73;5.68;;;;;;;17.65;75.23;100157.75;5021490;28;20061;-60
2023/08/18 07:05:49;;;;;;;13.48;5.10;;;;;;;17.69;75.04;100153.25;5031654;28;20052;-62
2023/08/18 07:08:16;;;;;;;13.23;4.65;;;;;;;17.71;74.87;100156.72;5027264;28;20696;-62
2023/08/18 07:10:43;;;;;;;11.40;5.72;;;;;;;17.73;74.75;100161.00;5025386;28;20049;-61
2023/08/18 07:13:10;;;;;;;16.05;5.55;;;;;;;17.79;74.25;100154.69;5025560;28;20045;-64
2023/08/18 07:15:37;;;;;;;17.58;6.30;;;;;;;17.83;74.80;100160.69;5035960;28;20040;-64
2023/08/18 07:18:04;;;;;;;13.93;6.35;;;;;;;17.84;75.22;100158.03;5028304;28;20045;-63
2023/08/18 07:20:31;;;;;;;19.25;5.97;;;;;;;17.86;74.86;100160.59;5025940;28;20133;-64
2023/08/18 07:22:58;;;;;;;16.80;6.38;;;;;;;17.88;75.34;100160.56;5025385;28;20387;-64
2023/08/18 07:25:25;;;;;;;19.20;7.70;;;;;;;17.93;75.29;100166.53;5031120;28;20064;-63
2023/08/18 07:27:51;;;;;;;17.05;7.85;;;;;;;17.92;75.58;100163.03;5019203;28;20463;-65
2023/08/18 07:30:18;;;;;;;18.58;7.05;;;;;;;17.89;74.89;100167.50;5030918;28;20564;-60
2023/08/18 07:32:45;;;;;;;16.58;6.80;;;;;;;17.93;75.12;100159.50;5036424;28;20056;-62
2023/08/18 07:35:11;;;;;;;18.63;7.55;;;;;;;17.97;75.46;100162.91;5027253;28;20053;-64
2023/08/18 07:37:38;;;;;;;19.75;8.00;;;;;;;17.98;75.77;100162.84;5029957;28;20045;-63
2023/08/18 07:40:10;;;;;;;20.02;7.80;;;;;;;18.03;75.40;100167.09;5028545;28;20076;-63
2023/08/18 07:42:38;;;;;;;19.40;7.82;;;;;;;17.98;75.23;100180.34;5032680;28;20072;-61
2023/08/18 07:45:06;;;;;;;19.40;8.38;;;;;;;18.05;75.74;100178.38;5022450;28;20084;-61
2023/08/18 07:47:34;;;;;;;19.75;9.10;;;;;;;18.08;75.79;100176.53;5027112;28;20127;-61
2023/08/18 07:50:02;;;;;;;24.73;9.10;;;;;;;18.11;76.07;100175.59;5026979;28;20045;-62
2023/08/18 07:52:28;;;;;;;21.75;9.93;;;;;;;18.19;74.62;100178.81;5023434;28;20053;-60
2023/08/18 07:54:55;;;;;;;26.42;9.88;;;;;;;18.20;75.59;100179.66;5023267;28;20152;-61
2023/08/18 07:57:22;;;;;;;25.23;10.07;;;;;;;18.28;75.77;100187.28;5028809;28;20041;-60
2023/08/18 07:59:49;;;;;;;22.83;9.95;;;;;;;18.33;75.60;100198.47;5026180;28;20053;-61
2023/08/18 08:02:16;;;;;;;22.27;10.10;;;;;;;18.32;75.30;100202.00;5028932;28;20057;-61
2023/08/18 08:04:55;;;;;;;24.35;9.40;;;;;;;18.27;75.62;100209.19;5020840;28;20049;-62
2023/08/18 08:07:22;;;;;;;25.73;9.15;;;;;;;18.24;75.95;100203.09;5028761;28;20042;-61
2023/08/18 08:09:49;;;;;;;24.00;9.20;;;;;;;18.19;76.25;100207.66;5034592;28;20144;-62
2023/08/18 08:12:16;;;;;;;28.48;10.13;;;;;;;18.23;75.74;100217.13;5021246;28;20048;-63
2023/08/18 08:14:43;;;;;;;23.88;9.73;;;;;;;18.25;75.83;100219.72;5025104;28;20510;-62
2023/08/18 08:17:10;;;;;;;28.25;9.52;;;;;;;18.22;76.24;100220.66;5023331;28;20132;-60
2023/08/18 08:19:36;;;;;;;20.70;8.38;;;;;;;18.26;76.65;100228.41;5024473;28;20049;-60
2023/08/18 08:22:09;;;;;;;18.02;7.25;;;;;;;18.22;75.84;100225.91;5020180;28;20048;-61
2023/08/18 08:24:36;;;;;;;22.02;7.95;;;;;;;18.15;76.83;100224.38;5022355;28;20343;-64
2023/08/18 08:27:03;;;;;;;18.20;7.85;;;;;;;18.17;76.54;100219.94;5023079;28;20049;-63
2023/08/18 08:29:29;;;;;;;18.45;7.55;;;;;;;18.12;76.84;100221.84;5025577;28;20049;-63
2023/08/18 08:31:56;;;;;;;17.35;7.07;;;;;;;18.13;76.38;100213.06;5028352;28;20044;-63
2023/08/18 08:34:22;;;;;;;21.50;6.45;;;;;;;18.14;76.97;100212.19;5029099;28;20104;-61
2023/08/18 08:36:49;;;;;;;15.80;6.50;;;;;;;18.13;76.54;100213.06;5027166;28;20049;-63
2023/08/18 08:39:16;;;;;;;16.25;6.22;;;;;;;18.10;76.83;100211.41;5027503;28;20042;-63
2023/08/18 08:41:43;;;;;;;16.08;6.10;;;;;;;18.11;76.71;100209.66;5031491;28;20041;-64
2023/08/18 08:44:09;;;;;;;13.40;5.53;;;;;;;18.09;77.23;100214.09;5032845;28;20085;-65
2023/08/18 08:46:37;;;;;;;16.17;6.38;;;;;;;18.16;76.71;100213.00;5024321;28;20045;-62
2023/08/18 08:49:05;;;;;;;15.75;5.90;;;;;;;18.12;76.68;100214.00;5027711;28;20053;-65
2023/08/18 08:51:37;;;;;;;13.77;5.97;;;;;;;18.12;76.79;100203.50;5029863;28;20042;-65
2023/08/18 08:54:07;;;;;;;12.90;6.22;;;;;;;18.15;77.55;100206.03;5028682;28;20099;-62
2023/08/18 08:56:38;;;;;;;16.98;6.20;;;;;;;18.16;77.42;100210.38;5030423;28;20502;-64
2023/08/18 08:59:05;;;;;;;14.55;6.45;;;;;;;18.17;77.22;100212.06;5023751;28;20049;-60
2023/08/18 09:01:32;;;;;;;13.45;5.65;;;;;;;18.21;76.95;100213.69;5033555;28;20072;-59
2023/08/18 09:03:59;;;;;;;15.85;6.20;;;;;;;18.30;76.53;100211.69;5024178;28;20065;-64
2023/08/18 09:06:26;;;;;;;15.02;6.40;;;;;;;18.33;77.33;100216.81;5025109;28;20045;-62
2023/08/18 09:08:53;;;;;;;15.25;6.05;;;;;;;18.38;76.21;100214.94;5029027;28;20041;-67
2023/08/18 09:11:37;;;;;;;15.65;5.50;;;;;;;18.36;77.21;100206.25;5026835;28;20041;-63
2023/08/18 09:14:04;;;;;;;13.32;6.00;;;;;;;18.45;76.33;100200.72;5015730;28;20052;-65
2023/08/18 09:16:31;;;;;;;12.40;6.00;;;;;;;18.49;76.24;100197.06;5024702;28;20585;-67
2023/08/18 09:18:58;;;;;;;14.77;5.32;;;;;;;18.53;76.57;100197.81;5037400;28;20048;-63
2023/08/18 09:21:25;;;;;;;14.05;5.95;;;;;;;18.57;76.21;100198.56;5030316;28;20045;-62
2023/08/18 09:23:56;;;;;;;14.60;5.88;;;;;;;18.58;76.58;100192.44;5022146;28;20054;-62
2023/08/18 09:26:24;;;;;;;12.05;5.00;;;;;;;18.59;76.28;100191.50;5027711;28;20045;-65
2023/08/18 09:28:50;;;;;;;11.88;5.32;;;;;;;18.61;76.46;100184.47;5024688;28;20128;-63
2023/08/18 09:31:19;;;;;;;13.40;5.80;;;;;;;18.65;76.10;100183.44;5022713;28;20136;-63
2023/08/18 09:33:46;;;;;;;13.95;5.47;;;;;;;18.68;76.43;100185.94;5023352;28;20044;-63
2023/08/18 09:36:14;;;;;;;12.02;6.10;;;;;;;18.70;76.55;100189.38;5036889;28;20052;-62
2023/08/18 09:38:41;;;;;;;12.25;5.68;;;;;;;18.71;76.09;100180.59;5029125;28;20095;-60
2023/08/18 09:41:09;;;;;;;12.30;5.38;;;;;;;18.78;76.47;100180.38;5031688;28;20050;-63
2023/08/18 09:43:37;;;;;;;14.77;5.82;;;;;;;18.78;76.18;100173.34;5048252;28;20053;-64
2023/08/18 09:46:05;;;;;;;14.70;5.45;;;;;;;18.81;76.31;100180.28;5035450;28;20068;-64
2023/08/18 09:48:35;;;;;;;12.07;5.60;;;;;;;18.83;76.25;100175.81;5040460;28;20120;-59
2023/08/18 09:51:05;;;;;;;13.70;5.80;;;;;;;18.84;76.21;100164.41;5047148;28;20093;-63
2023/08/18 09:53:32;;;;;;;14.60;5.97;;;;;;;18.86;75.79;100165.22;5045733;28;20060;-61
2023/08/18 09:56:04;;;;;;;9.27;4.78;;;;;;;18.87;76.53;100164.31;5049431;28;20053;-63
2023/08/18 10:01:09;;;;;;;16.42;9.10;;;;;;;19.27;76.33;100162.03;5030560;27;20421;-62
2023/08/18 10:03:39;;;;;;;12.82;6.47;;;;;;;19.10;76.32;100160.03;5028046;28;20049;-59
2023/08/18 10:06:07;;;;;;;12.57;6.78;;;;;;;19.10;76.02;100155.66;5023749;28;20048;-64
2023/08/18 10:08:34;;;;;;;11.50;5.82;;;;;;;19.14;76.18;100141.50;5023749;28;20428;-62
2023/08/18 10:11:01;;;;;;;13.30;6.95;;;;;;;19.19;76.37;100138.69;5024771;28;20046;-61
2023/08/18 10:13:33;;;;;;;14.07;6.55;;;;;;;19.24;75.90;100134.13;5024218;28;20049;-59
2023/08/18 10:16:03;;;;;;;13.98;7.63;;;;;;;19.33;76.22;100134.69;5028729;28;20049;-62
2023/08/18 10:18:31;;;;;;;12.43;7.10;;;;;;;19.40;76.16;100120.41;5019920;28;20570;-63
2023/08/18 10:20:58;;;;;;;10.38;5.43;;;;;;;19.49;76.12;100112.16;5024714;28;20506;-60
2023/08/18 10:23:29;;;;;;;16.35;6.80;;;;;;;19.56;76.15;100114.56;5024130;28;20057;-63
2023/08/18 10:25:56;;;;;;;12.45;5.72;;;;;;;19.64;75.87;100104.59;5018380;28;20073;-62
2023/08/18 10:28:28;;;;;;;10.48;4.72;;;;;;;19.70;75.82;100112.25;5016220;28;20893;-62
2023/08/18 10:31:00;;;;;;;10.75;6.53;;;;;;;19.76;75.62;100108.53;5024108;28;20064;-62
2023/08/18 10:33:31;;;;;;;10.55;6.75;;;;;;;19.83;75.37;100104.72;5023643;28;20046;-62
2023/08/18 10:36:01;;;;;;;11.38;6.00;;;;;;;19.85;75.42;100099.38;5023690;28;20050;-60
2023/08/18 10:38:29;;;;;;;11.23;6.93;;;;;;;19.85;75.07;100099.38;5024998;28;20049;-63
2023/08/18 10:40:56;;;;;;;14.10;6.10;;;;;;;19.81;75.56;100105.69;5028074;28;20132;-62
2023/08/18 10:43:27;;;;;;;12.95;6.63;;;;;;;19.86;75.78;100106.38;5026531;28;20049;-61
2023/08/18 10:45:59;;;;;;;12.80;6.32;;;;;;;19.86;75.56;100104.59;5024634;28;20048;-61
2023/08/18 10:48:30;;;;;;;7.57;5.22;;;;;;;19.90;75.48;100097.44;5026229;28;20104;-64
2023/08/18 10:50:56;;;;;;;14.57;6.63;;;;;;;19.91;76.04;100094.75;5024521;28;20069;-64
2023/08/18 10:53:23;;;;;;;11.05;6.60;;;;;;;19.97;75.86;100082.28;5024139;28;20112;-64
2023/08/18 10:55:53;;;;;;;10.98;6.22;;;;;;;20.09;75.35;100087.03;5025303;28;20780;-61
2023/08/18 10:58:21;;;;;;;12.13;7.43;;;;;;;20.14;75.38;100078.97;5022002;28;20614;-61
2023/08/18 11:00:49;;;;;;;10.63;7.13;;;;;;;20.26;75.22;100067.06;5024174;28;20068;-62
2023/08/18 11:03:16;;;;;;;12.77;6.43;;;;;;;20.24;75.63;100067.16;5024271;28;20575;-62
2023/08/18 11:05:43;;;;;;;12.55;5.68;;;;;;;20.32;75.37;100068.56;5023268;28;20450;-62
2023/08/18 11:08:10;;;;;;;11.43;6.28;;;;;;;20.40;75.06;100074.38;5027209;28;20060;-63
2023/08/18 11:10:39;;;;;;;11.75;7.15;;;;;;;20.38;75.08;100065.69;5018436;28;20061;-60
2023/08/18 11:13:10;;;;;;;14.23;6.72;;;;;;;20.45;74.79;100067.13;5018281;28;20045;-62
2023/08/18 11:15:37;;;;;;;13.48;7.68;;;;;;;20.53;74.53;100057.13;5009879;28;20049;-61
2023/08/18 11:18:04;;;;;;;12.15;7.63;;;;;;;20.60;74.37;100036.63;5009222;28;20120;-62
2023/08/18 11:20:30;;;;;;;12.60;6.57;;;;;;;20.63;73.60;100043.53;5006368;28;20042;-62
2023/08/18 11:22:57;;;;;;;12.05;7.25;;;;;;;20.68;74.00;100044.19;5007897;28;20054;-62
2023/08/18 11:25:25;;;;;;;8.25;4.82;;;;;;;20.73;73.89;100034.31;5009232;28;20466;-63
2023/08/18 11:27:52;;;;;;;8.05;5.60;;;;;;;20.76;73.67;100028.91;5001208;28;20117;-64
2023/08/18 11:30:21;;;;;;;11.07;6.65;;;;;;;20.73;73.43;100031.69;5010005;28;20100;-63